Terminal Aerodrome Forecast
Issued by NWS

Home | Current Version | Previous Version | Text Only | Print | Product List | Glossary On
Versions: 1 2 3 4 5 6 7 8 9 10 11 12 13 14 15 16 17
489
FTUS41 KPHI 230141 AAA
TAFPNE
TAF AMD
KPNE 230141Z 2302/2324 12004KT P6SM FEW007 SCT045 BKN070
     FM230300 22005KT P6SM SCT040 OVC070
     FM230500 26005KT P6SM VCSH SCT030 BKN050 OVC070
     FM230900 27005KT P6SM SCT050 BKN070
     FM231100 33006KT P6SM BKN070
     FM231400 01005KT P6SM BKN090
     FM231700 VRB03KT P6SM BKN050
     FM232100 11007KT P6SM BKN050=

USA.gov is the U.S. government's official web portal to all federal, state and local government web resources and services.